Time;durP1;ratioP1;P1;durP2;ratioP2;P2;SDS_P1;SDS_P2;PMS_P1;PMS_P2;Temp;Humidity;BMP_temperature;BMP_pressure;BME280_temperature;BME280_humidity;BME280_pressure;Samples;Min_cycle;Max_cycle;Signal;HPM_P1;HPM_P2
2023/08/23 00:01:36;;;;;;;7.50;4.50;;;24.50;66.50;;;;;;5034912;28;20037;-83
2023/08/23 00:04:02;;;;;;;7.40;4.63;;;24.50;66.40;;;;;;5034722;28;20029;-80
2023/08/23 00:06:28;;;;;;;4.75;4.22;;;24.40;66.20;;;;;;5034262;28;20075;-81
2023/08/23 00:08:53;;;;;;;6.40;4.75;;;24.40;66.40;;;;;;5034272;28;20041;-81
2023/08/23 00:11:19;;;;;;;5.70;4.20;;;24.30;66.60;;;;;;5034615;28;20108;-82
2023/08/23 00:13:45;;;;;;;6.43;4.90;;;24.20;67.00;;;;;;5034457;28;20080;-81
2023/08/23 00:16:11;;;;;;;5.50;4.35;;;24.20;67.10;;;;;;5034600;28;20029;-81
2023/08/23 00:18:36;;;;;;;5.05;4.47;;;24.20;67.10;;;;;;5034521;28;20071;-81
2023/08/23 00:21:02;;;;;;;6.55;5.00;;;24.30;66.80;;;;;;5034137;28;20070;-84
2023/08/23 00:23:28;;;;;;;6.30;4.05;;;24.30;66.90;;;;;;5034610;28;20461;-84
2023/08/23 00:25:53;;;;;;;6.00;4.55;;;24.30;66.60;;;;;;5034418;28;20048;-85
2023/08/23 00:28:19;;;;;;;8.68;4.45;;;24.30;66.50;;;;;;5035500;28;20026;-85
2023/08/23 00:30:55;;;;;;;7.60;4.75;;;24.20;66.80;;;;;;5034660;28;20029;-84
2023/08/23 00:33:21;;;;;;;5.07;4.25;;;24.30;66.30;;;;;;5034433;28;20386;-84
2023/08/23 00:35:47;;;;;;;4.50;4.00;;;24.20;66.60;;;;;;5034436;28;20026;-83
2023/08/23 00:38:13;;;;;;;7.80;4.38;;;24.10;66.80;;;;;;5034700;28;20483;-85
2023/08/23 00:40:39;;;;;;;7.05;4.32;;;24.00;66.80;;;;;;5034204;28;20032;-85
2023/08/23 00:43:07;;;;;;;5.85;4.72;;;23.90;67.80;;;;;;5034339;28;20025;-85
2023/08/23 00:45:35;;;;;;;5.50;4.13;;;23.90;67.50;;;;;;5035264;28;20029;-83
2023/08/23 00:48:03;;;;;;;5.25;3.85;;;23.90;67.70;;;;;;5033940;28;20033;-82
2023/08/23 00:50:31;;;;;;;4.57;4.15;;;24.00;67.50;;;;;;5029978;28;20053;-82
2023/08/23 00:52:57;;;;;;;5.40;4.40;;;24.00;67.30;;;;;;5013908;28;20042;-79
2023/08/23 00:55:23;;;;;;;6.88;4.32;;;24.10;66.70;;;;;;5013835;28;20494;-81
2023/08/23 00:57:50;;;;;;;7.72;3.90;;;24.10;67.30;;;;;;5013724;28;20022;-80
2023/08/23 01:00:16;;;;;;;5.80;3.92;;;23.90;66.60;;;;;;5013973;28;20135;-79
2023/08/23 01:02:42;;;;;;;7.70;4.53;;;23.80;67.00;;;;;;5013792;28;20022;-79
2023/08/23 01:05:08;;;;;;;6.18;4.28;;;23.70;67.40;;;;;;5013869;28;20083;-81
2023/08/23 01:07:45;;;;;;;6.20;4.28;;;23.60;68.10;;;;;;5013677;28;20026;-80
2023/08/23 01:10:39;;;;;;;7.43;4.75;;;23.50;68.60;;;;;;5013719;28;20114;-80
2023/08/23 01:13:18;;;;;;;5.00;3.70;;;23.40;68.80;;;;;;5013360;28;20445;-81
2023/08/23 01:15:45;;;;;;;5.57;3.90;;;23.50;69.00;;;;;;5013667;28;20045;-81
2023/08/23 01:18:13;;;;;;;6.05;4.60;;;23.60;68.50;;;;;;5013444;28;20091;-81
2023/08/23 01:20:39;;;;;;;5.32;4.20;;;23.70;68.40;;;;;;5013443;28;20324;-81
2023/08/23 01:23:16;;;;;;;4.80;4.10;;;23.70;67.40;;;;;;5013452;28;20025;-82
2023/08/23 01:25:49;;;;;;;6.15;4.32;;;23.80;67.20;;;;;;5013588;28;20348;-80
2023/08/23 01:28:16;;;;;;;5.32;4.03;;;23.70;67.60;;;;;;5013071;28;20026;-81
2023/08/23 01:30:41;;;;;;;8.25;4.07;;;23.80;67.40;;;;;;5013335;28;20022;-80
2023/08/23 01:33:32;;;;;;;9.50;4.35;;;23.80;67.10;;;;;;5012543;28;20033;-79
2023/08/23 01:36:30;;;;;;;8.63;4.07;;;23.70;67.60;;;;;;5013034;28;20026;-80
2023/08/23 01:38:58;;;;;;;7.53;4.03;;;23.70;67.20;;;;;;4970261;28;20034;-80
2023/08/23 01:41:24;;;;;;;4.68;3.78;;;23.70;67.50;;;;;;5012880;28;20025;-80
2023/08/23 01:43:52;;;;;;;5.95;4.20;;;23.70;67.40;;;;;;5013229;28;20083;-82
2023/08/23 01:46:17;;;;;;;6.82;4.20;;;23.70;67.40;;;;;;5013065;28;20026;-83
2023/08/23 01:48:43;;;;;;;6.03;3.95;;;23.80;67.00;;;;;;5012890;28;20045;-82
2023/08/23 01:51:09;;;;;;;8.02;4.25;;;23.80;66.80;;;;;;5012945;28;20025;-82
2023/08/23 01:53:34;;;;;;;6.15;4.35;;;23.70;66.90;;;;;;5012940;28;20025;-82
2023/08/23 01:56:00;;;;;;;4.55;3.85;;;23.60;67.20;;;;;;5013021;28;20029;-83
2023/08/23 01:58:26;;;;;;;5.03;4.40;;;23.60;67.30;;;;;;5012934;28;20036;-81
2023/08/23 02:00:52;;;;;;;6.68;4.30;;;23.60;67.70;;;;;;5012546;28;20028;-82
2023/08/23 02:03:18;;;;;;;6.55;3.95;;;23.50;67.40;;;;;;5012802;28;20022;-81
2023/08/23 02:05:44;;;;;;;4.97;3.97;;;23.50;68.40;;;;;;5012725;28;20033;-82
2023/08/23 02:08:10;;;;;;;6.05;4.18;;;23.50;67.70;;;;;;5012425;28;20072;-81
2023/08/23 02:10:36;;;;;;;4.63;3.72;;;23.50;67.50;;;;;;5012703;28;20022;-80
2023/08/23 02:13:05;;;;;;;5.13;3.58;;;23.50;67.70;;;;;;5012548;28;20057;-82
2023/08/23 02:15:31;;;;;;;6.38;3.90;;;23.40;67.20;;;;;;5012637;28;20410;-83
2023/08/23 02:17:56;;;;;;;5.47;4.25;;;23.30;67.40;;;;;;5012999;28;20026;-85
2023/08/23 02:20:22;;;;;;;8.25;4.45;;;23.10;68.00;;;;;;5012820;28;20375;-86
2023/08/23 02:22:47;;;;;;;5.20;4.47;;;23.00;68.30;;;;;;5012630;28;20352;-81
2023/08/23 02:25:13;;;;;;;5.75;4.05;;;22.90;68.90;;;;;;5012352;28;20148;-79
2023/08/23 02:27:39;;;;;;;5.85;4.15;;;22.80;69.00;;;;;;5013018;28;20062;-81
2023/08/23 02:30:06;;;;;;;6.97;3.78;;;22.90;68.90;;;;;;5012366;28;20036;-81
2023/08/23 02:32:33;;;;;;;4.15;3.63;;;22.90;69.00;;;;;;5012385;28;20096;-81
2023/08/23 02:34:59;;;;;;;6.45;3.60;;;23.00;68.20;;;;;;5011950;28;20431;-81
2023/08/23 02:37:25;;;;;;;10.38;4.20;;;22.90;68.30;;;;;;5012111;28;20049;-80
2023/08/23 02:39:50;;;;;;;5.63;3.75;;;22.90;68.50;;;;;;5012237;28;20108;-81
2023/08/23 02:42:16;;;;;;;6.35;3.78;;;22.90;67.90;;;;;;5012379;28;20378;-83
2023/08/23 02:44:41;;;;;;;5.82;3.65;;;22.90;67.80;;;;;;5012004;28;20192;-83
2023/08/23 02:47:07;;;;;;;5.32;4.07;;;22.90;67.70;;;;;;5012194;28;20026;-84
2023/08/23 02:49:32;;;;;;;4.15;3.58;;;22.90;67.70;;;;;;5012127;28;20034;-79
2023/08/23 02:51:58;;;;;;;5.55;3.97;;;22.80;67.70;;;;;;5012095;28;20026;-81
2023/08/23 02:54:24;;;;;;;9.27;4.30;;;22.80;67.70;;;;;;5012215;28;20033;-79
2023/08/23 02:56:49;;;;;;;8.80;4.32;;;22.90;67.40;;;;;;5012044;28;20046;-80
2023/08/23 02:59:16;;;;;;;6.18;4.10;;;22.90;67.10;;;;;;5012140;28;20018;-78
2023/08/23 03:01:41;;;;;;;6.35;4.10;;;22.70;67.90;;;;;;5012531;28;20030;-87
2023/08/23 03:04:07;;;;;;;8.57;4.10;;;22.70;68.20;;;;;;5013097;28;20022;-82
2023/08/23 03:06:32;;;;;;;4.13;3.70;;;22.80;67.50;;;;;;5013270;28;20072;-91
2023/08/23 03:08:58;;;;;;;6.20;4.05;;;22.90;68.20;;;;;;5012938;28;20033;-88
2023/08/23 03:11:24;;;;;;;5.03;3.90;;;22.90;67.50;;;;;;5012655;28;20113;-86
2023/08/23 03:13:49;;;;;;;4.93;4.00;;;22.80;67.40;;;;;;5011959;28;20073;-83
2023/08/23 03:16:15;;;;;;;6.63;3.50;;;22.90;67.20;;;;;;5011584;28;20420;-82
2023/08/23 03:18:40;;;;;;;4.85;3.78;;;22.90;67.00;;;;;;5011935;28;20026;-84
2023/08/23 03:21:06;;;;;;;5.57;3.90;;;22.90;67.60;;;;;;5011999;28;20108;-84
2023/08/23 03:23:32;;;;;;;5.40;3.40;;;22.70;66.30;;;;;;5011839;28;20347;-83
2023/08/23 03:25:57;;;;;;;5.95;3.58;;;22.70;66.70;;;;;;5012123;28;20083;-84
2023/08/23 03:28:23;;;;;;;7.10;3.50;;;22.60;66.50;;;;;;5011794;28;20030;-83
2023/08/23 03:30:49;;;;;;;5.82;3.53;;;22.50;66.40;;;;;;5011890;28;20026;-84
2023/08/23 03:33:14;;;;;;;6.97;3.70;;;22.50;66.80;;;;;;5011719;28;20036;-84
2023/08/23 03:35:41;;;;;;;5.43;3.70;;;22.60;67.30;;;;;;5011806;28;20352;-84
2023/08/23 03:38:07;;;;;;;6.35;3.75;;;22.70;67.20;;;;;;5011776;28;20360;-83
2023/08/23 03:40:39;;;;;;;6.40;3.65;;;22.70;67.10;;;;;;5011656;28;20121;-84
2023/08/23 03:43:05;;;;;;;4.43;3.42;;;22.70;67.20;;;;;;5011447;28;20018;-82
2023/08/23 03:45:31;;;;;;;7.18;3.60;;;22.80;66.80;;;;;;5011740;28;20076;-82
2023/08/23 03:47:56;;;;;;;4.80;3.70;;;22.80;66.70;;;;;;5012597;28;20425;-86
2023/08/23 03:50:22;;;;;;;8.00;4.05;;;22.80;66.70;;;;;;5012005;28;20062;-82
2023/08/23 03:52:48;;;;;;;4.38;3.58;;;22.80;66.30;;;;;;5013852;28;20024;-82
2023/08/23 03:55:13;;;;;;;6.50;3.50;;;22.70;66.30;;;;;;5011581;28;20029;-82
2023/08/23 03:57:39;;;;;;;4.03;3.60;;;22.70;66.80;;;;;;5014957;28;20026;-82
2023/08/23 04:00:06;;;;;;;6.72;3.60;;;22.70;67.00;;;;;;5015444;28;20112;-84
2023/08/23 04:02:31;;;;;;;4.45;3.45;;;22.70;66.70;;;;;;5015376;28;20025;-83
2023/08/23 04:04:57;;;;;;;4.95;3.60;;;22.80;66.70;;;;;;5015345;28;20129;-83
2023/08/23 04:07:22;;;;;;;4.32;3.47;;;22.90;66.40;;;;;;5016441;28;20018;-83
2023/08/23 04:09:48;;;;;;;5.75;3.88;;;22.90;66.00;;;;;;5015867;28;20486;-82
2023/08/23 04:12:14;;;;;;;7.20;3.90;;;22.90;65.30;;;;;;5014954;28;20026;-80
2023/08/23 04:14:39;;;;;;;6.07;3.92;;;22.90;65.30;;;;;;5023534;28;20033;-81
2023/08/23 04:17:05;;;;;;;7.68;3.72;;;22.80;64.50;;;;;;5029240;28;20025;-79
2023/08/23 04:19:30;;;;;;;6.43;3.58;;;22.70;64.50;;;;;;5025274;28;20109;-80
2023/08/23 04:21:56;;;;;;;7.15;3.97;;;22.70;64.90;;;;;;5019427;28;20018;-82
2023/08/23 04:24:22;;;;;;;4.20;2.95;;;22.80;64.70;;;;;;5018894;28;20025;-79
2023/08/23 04:26:47;;;;;;;6.20;3.30;;;22.90;64.60;;;;;;5017945;28;20125;-80
2023/08/23 04:29:13;;;;;;;5.35;3.70;;;22.90;64.80;;;;;;5019335;28;20037;-82
2023/08/23 04:31:38;;;;;;;6.53;3.90;;;22.90;65.10;;;;;;5019076;28;20021;-82
2023/08/23 04:34:04;;;;;;;4.38;3.58;;;22.70;65.50;;;;;;5018194;28;20363;-81
2023/08/23 04:36:31;;;;;;;4.35;3.55;;;22.70;66.10;;;;;;5024367;28;20018;-80
2023/08/23 04:38:56;;;;;;;5.63;3.40;;;22.70;66.40;;;;;;5017724;28;20026;-81
2023/08/23 04:41:22;;;;;;;6.65;3.72;;;22.70;66.30;;;;;;5018333;28;20029;-80
2023/08/23 04:43:47;;;;;;;6.20;3.50;;;22.80;66.10;;;;;;5018119;28;20489;-79
2023/08/23 04:46:13;;;;;;;6.75;3.95;;;22.70;65.50;;;;;;5017779;28;20023;-75
2023/08/23 04:48:38;;;;;;;4.80;3.40;;;22.60;64.80;;;;;;5017575;28;20037;-78
2023/08/23 04:51:09;;;;;;;5.07;3.47;;;22.60;65.10;;;;;;5034896;28;20021;-82
2023/08/23 04:53:35;;;;;;;7.72;4.07;;;22.60;65.40;;;;;;5018056;28;20028;-86
2023/08/23 04:56:01;;;;;;;10.18;4.00;;;22.60;65.70;;;;;;5017915;28;20433;-85
2023/08/23 04:58:29;;;;;;;5.53;3.35;;;22.60;66.30;;;;;;5017999;28;20026;-84
2023/08/23 05:00:58;;;;;;;7.88;3.70;;;22.60;65.70;;;;;;5017912;28;20047;-83
2023/08/23 05:03:25;;;;;;;6.25;3.75;;;22.50;65.50;;;;;;5017650;28;20033;-81
2023/08/23 05:05:51;;;;;;;8.13;4.18;;;22.60;65.10;;;;;;5017519;28;20482;-83
2023/08/23 05:08:17;;;;;;;5.63;3.70;;;22.60;65.20;;;;;;5016407;28;20067;-82
2023/08/23 05:10:42;;;;;;;13.95;3.58;;;22.50;65.30;;;;;;5017346;28;20108;-77
2023/08/23 05:13:09;;;;;;;7.93;3.53;;;22.70;66.00;;;;;;5017071;28;20049;-78
2023/08/23 05:15:34;;;;;;;9.18;3.83;;;22.80;64.90;;;;;;5017182;28;20018;-78
2023/08/23 05:18:00;;;;;;;6.55;3.60;;;22.90;64.10;;;;;;5017261;28;20021;-80
2023/08/23 05:20:27;;;;;;;5.20;3.50;;;22.90;64.10;;;;;;5017180;28;20379;-81
2023/08/23 05:22:52;;;;;;;8.43;4.05;;;22.90;64.30;;;;;;5017037;28;20453;-80
2023/08/23 05:25:18;;;;;;;9.73;3.92;;;22.90;64.60;;;;;;5017114;28;20031;-79
2023/08/23 05:27:44;;;;;;;7.53;3.90;;;22.90;65.20;;;;;;5016471;28;20602;-80
2023/08/23 05:30:09;;;;;;;7.78;4.00;;;22.90;64.90;;;;;;5017141;28;20470;-81
2023/08/23 05:32:35;;;;;;;9.43;3.88;;;22.70;64.70;;;;;;5017146;28;20071;-81
2023/08/23 05:35:01;;;;;;;7.30;4.50;;;22.70;64.90;;;;;;5016943;28;20143;-82
2023/08/23 05:37:26;;;;;;;5.40;4.03;;;22.70;65.20;;;;;;5016871;28;20024;-78
2023/08/23 05:39:52;;;;;;;9.02;4.32;;;22.70;65.10;;;;;;5016560;28;20033;-78
2023/08/23 05:42:18;;;;;;;7.88;3.85;;;22.70;65.10;;;;;;5015984;28;20029;-74
2023/08/23 05:44:43;;;;;;;5.90;4.03;;;22.80;64.90;;;;;;5016252;28;20026;-78
2023/08/23 05:47:09;;;;;;;9.68;4.43;;;22.90;64.90;;;;;;5016590;28;20048;-79
2023/08/23 05:49:35;;;;;;;11.20;4.10;;;22.90;64.60;;;;;;5016463;28;20037;-79
2023/08/23 05:52:00;;;;;;;6.10;4.35;;;23.00;64.40;;;;;;5016637;28;20091;-79
2023/08/23 05:54:28;;;;;;;9.52;4.40;;;23.10;64.30;;;;;;5016561;28;20037;-78
2023/08/23 05:56:54;;;;;;;9.07;4.20;;;23.20;63.90;;;;;;5018056;28;20030;-79
2023/08/23 05:59:19;;;;;;;4.90;3.55;;;23.20;64.00;;;;;;5023092;28;20020;-78
2023/08/23 06:01:45;;;;;;;6.35;3.88;;;23.20;63.70;;;;;;5017403;28;20061;-78
2023/08/23 06:04:10;;;;;;;7.30;4.20;;;23.40;63.50;;;;;;5016223;28;20022;-82
2023/08/23 06:06:36;;;;;;;6.80;3.67;;;23.50;63.40;;;;;;5015967;28;20083;-82
2023/08/23 06:09:02;;;;;;;6.97;3.88;;;23.70;62.80;;;;;;5016006;28;20034;-82
2023/08/23 06:11:28;;;;;;;6.82;3.78;;;23.90;62.00;;;;;;5016212;28;20106;-82
2023/08/23 06:13:55;;;;;;;7.50;4.00;;;24.20;61.30;;;;;;5015971;28;20557;-81
2023/08/23 06:16:21;;;;;;;8.45;3.65;;;24.40;60.50;;;;;;5016164;28;20018;-84
2023/08/23 06:18:46;;;;;;;5.72;3.45;;;24.60;60.10;;;;;;5015755;28;20034;-84
2023/08/23 06:21:12;;;;;;;4.30;3.38;;;24.80;59.60;;;;;;5015897;28;20021;-84
2023/08/23 06:23:43;;;;;;;5.82;3.70;;;24.80;59.10;;;;;;5015926;28;20029;-80
2023/08/23 06:26:10;;;;;;;6.57;3.90;;;24.90;59.10;;;;;;5016142;28;20021;-80
2023/08/23 06:28:35;;;;;;;9.23;4.20;;;25.00;59.30;;;;;;5016010;28;20036;-80
2023/08/23 06:31:01;;;;;;;5.53;3.80;;;24.90;59.90;;;;;;5016375;28;20022;-80
2023/08/23 06:33:27;;;;;;;10.38;4.47;;;24.90;60.00;;;;;;5016043;28;20033;-80
2023/08/23 06:35:52;;;;;;;7.25;4.00;;;24.90;60.10;;;;;;5015736;28;20013;-78
2023/08/23 06:38:18;;;;;;;9.77;4.30;;;25.00;60.00;;;;;;5015657;28;20025;-80
2023/08/23 06:40:44;;;;;;;9.35;4.18;;;25.10;59.90;;;;;;5015572;28;20021;-79
2023/08/23 06:43:17;;;;;;;9.52;5.00;;;25.10;59.70;;;;;;5016044;28;20022;-82
2023/08/23 06:45:42;;;;;;;7.25;4.28;;;25.10;59.60;;;;;;5020358;28;20022;-87
2023/08/23 06:48:08;;;;;;;7.47;4.57;;;25.10;59.70;;;;;;5017111;28;20378;-84
2023/08/23 06:50:35;;;;;;;7.15;3.85;;;25.10;60.50;;;;;;5023029;28;20037;-85
2023/08/23 06:53:02;;;;;;;4.82;3.63;;;25.10;59.60;;;;;;5027302;28;20026;-85
2023/08/23 06:55:28;;;;;;;4.75;3.47;;;25.20;59.50;;;;;;5019610;28;20490;-83
2023/08/23 06:57:53;;;;;;;4.70;3.70;;;25.20;59.50;;;;;;5017975;28;20035;-90
2023/08/23 07:00:19;;;;;;;7.47;3.97;;;25.20;59.50;;;;;;5017774;28;20057;-83
2023/08/23 07:02:45;;;;;;;5.55;3.63;;;25.40;59.20;;;;;;5015994;28;20409;-82
2023/08/23 07:05:10;;;;;;;7.28;3.72;;;25.50;58.70;;;;;;5016155;28;20075;-86
2023/08/23 07:07:36;;;;;;;6.95;3.85;;;25.60;58.20;;;;;;5015729;28;20048;-87
2023/08/23 07:10:02;;;;;;;9.02;3.88;;;25.80;57.70;;;;;;5015913;28;20044;-84
2023/08/23 07:12:28;;;;;;;7.15;4.03;;;25.90;57.50;;;;;;5016379;28;20036;-79
2023/08/23 07:14:53;;;;;;;6.22;3.88;;;26.00;57.50;;;;;;5015395;28;20112;-76
2023/08/23 07:17:19;;;;;;;6.80;4.00;;;25.90;57.00;;;;;;5017271;28;20022;-84
2023/08/23 07:19:45;;;;;;;8.93;3.85;;;26.00;57.30;;;;;;5015868;28;20018;-82
2023/08/23 07:22:11;;;;;;;12.57;8.48;;;26.20;56.90;;;;;;5016242;28;20385;-86
2023/08/23 07:24:37;;;;;;;15.45;7.78;;;26.30;56.50;;;;;;5023192;28;20026;-80
2023/08/23 07:27:03;;;;;;;11.75;4.95;;;26.50;56.20;;;;;;5014914;28;20025;-78
2023/08/23 07:29:28;;;;;;;7.85;4.88;;;26.40;55.70;;;;;;5015124;28;20037;-76
2023/08/23 07:31:54;;;;;;;9.25;5.75;;;26.20;56.40;;;;;;5035756;28;20033;-81
2023/08/23 07:34:19;;;;;;;7.43;4.90;;;26.20;57.00;;;;;;5018913;28;20063;-81
2023/08/23 07:36:45;;;;;;;10.98;5.47;;;26.20;56.70;;;;;;5036789;28;20025;-77
2023/08/23 07:39:11;;;;;;;11.75;4.82;;;26.10;56.90;;;;;;5018849;28;20545;-78
2023/08/23 07:41:37;;;;;;;12.80;5.00;;;26.10;56.90;;;;;;5019652;28;20075;-80
2023/08/23 07:44:02;;;;;;;11.65;4.82;;;26.30;56.60;;;;;;5025459;28;20113;-81
2023/08/23 07:46:28;;;;;;;8.50;4.35;;;26.30;56.40;;;;;;5022611;28;20474;-81
2023/08/23 07:48:53;;;;;;;8.43;4.55;;;26.40;56.30;;;;;;5025355;28;20037;-79
2023/08/23 07:51:20;;;;;;;6.97;4.60;;;26.40;56.20;;;;;;5018884;28;20029;-79
2023/08/23 07:53:46;;;;;;;8.10;4.85;;;26.50;55.90;;;;;;5018778;28;20083;-79
2023/08/23 07:56:12;;;;;;;8.40;4.53;;;26.60;56.00;;;;;;5018589;28;20450;-81
2023/08/23 07:58:38;;;;;;;6.35;3.95;;;26.60;55.70;;;;;;5017969;28;20037;-78
2023/08/23 08:01:05;;;;;;;8.75;4.85;;;26.60;55.90;;;;;;5018520;28;20068;-78
2023/08/23 08:03:30;;;;;;;10.00;4.63;;;26.70;55.20;;;;;;5017751;28;20458;-79
2023/08/23 08:05:56;;;;;;;11.63;4.80;;;26.80;54.90;;;;;;5018308;28;20025;-87
2023/08/23 08:08:23;;;;;;;9.52;4.78;;;26.90;54.70;;;;;;5018113;28;20041;-83
2023/08/23 08:10:49;;;;;;;6.95;4.10;;;27.00;55.20;;;;;;5018390;28;20025;-81
2023/08/23 08:13:15;;;;;;;7.30;4.97;;;27.10;56.60;;;;;;5017976;28;20138;-81
2023/08/23 08:15:41;;;;;;;6.90;4.13;;;27.20;57.00;;;;;;5018346;28;20501;-81
2023/08/23 08:18:07;;;;;;;7.22;4.18;;;27.30;56.90;;;;;;5018240;28;20509;-81
2023/08/23 08:20:33;;;;;;;10.32;5.00;;;27.30;57.70;;;;;;5018045;28;20030;-82
2023/08/23 08:22:58;;;;;;;6.75;4.25;;;27.30;57.40;;;;;;5017976;28;20025;-80
2023/08/23 08:25:25;;;;;;;6.85;4.10;;;27.30;57.30;;;;;;5018337;28;20464;-81
2023/08/23 08:27:51;;;;;;;7.07;4.47;;;27.20;58.80;;;;;;5018080;28;20029;-82
2023/08/23 08:30:17;;;;;;;8.35;4.47;;;27.10;58.80;;;;;;5018033;28;20109;-82
2023/08/23 08:32:43;;;;;;;4.72;4.30;;;27.00;58.50;;;;;;5018090;28;20022;-80
2023/08/23 08:35:09;;;;;;;5.55;4.22;;;27.00;58.70;;;;;;5017739;28;20025;-80
2023/08/23 08:37:35;;;;;;;6.90;4.97;;;27.10;58.40;;;;;;5034423;28;20477;-80
2023/08/23 08:40:01;;;;;;;9.13;5.07;;;27.20;58.30;;;;;;5017608;28;20101;-82
2023/08/23 08:42:28;;;;;;;11.23;5.65;;;27.30;58.30;;;;;;5017210;28;20499;-82
2023/08/23 08:44:55;;;;;;;10.75;5.18;;;27.20;59.00;;;;;;5017867;28;20029;-82
2023/08/23 08:47:23;;;;;;;6.95;5.13;;;27.20;58.00;;;;;;5019414;28;20072;-82
2023/08/23 08:49:49;;;;;;;12.90;6.03;;;27.30;58.50;;;;;;5020263;28;20064;-84
2023/08/23 08:52:18;;;;;;;6.78;4.65;;;27.40;58.80;;;;;;5024485;28;20029;-83
2023/08/23 08:54:46;;;;;;;11.20;6.80;;;27.30;59.10;;;;;;5018976;28;20490;-78
2023/08/23 08:57:14;;;;;;;6.43;5.70;;;27.10;59.20;;;;;;5034866;28;20057;-80
2023/08/23 08:59:45;;;;;;;10.68;7.20;;;27.20;59.50;;;;;;5017258;28;20433;-77
2023/08/23 09:02:14;;;;;;;7.90;5.57;;;27.00;59.40;;;;;;5017179;28;20021;-78
2023/08/23 09:04:43;;;;;;;9.32;5.90;;;27.00;60.10;;;;;;5016647;28;20036;-78
2023/08/23 09:07:08;;;;;;;8.35;5.45;;;27.00;59.40;;;;;;5017192;28;20124;-78
2023/08/23 09:09:35;;;;;;;13.50;5.50;;;27.00;59.10;;;;;;5016506;28;20500;-77
2023/08/23 09:12:02;;;;;;;8.93;5.13;;;27.00;59.30;;;;;;5016790;28;20394;-79
2023/08/23 09:14:28;;;;;;;5.28;4.55;;;27.20;58.70;;;;;;5016450;28;20137;-79
2023/08/23 09:17:10;;;;;;;6.72;5.43;;;27.40;58.80;;;;;;5034326;28;20037;-79
2023/08/23 09:19:39;;;;;;;8.38;5.65;;;27.60;57.50;;;;;;5016425;28;20133;-77
2023/08/23 09:22:09;;;;;;;5.63;4.70;;;27.80;57.10;;;;;;5034727;28;20021;-77
2023/08/23 09:24:34;;;;;;;5.22;3.92;;;27.90;56.80;;;;;;5000134;28;20549;-78
2023/08/23 09:27:00;;;;;;;7.93;3.97;;;28.10;56.30;;;;;;5015567;28;20033;-78
2023/08/23 09:29:29;;;;;;;8.13;4.15;;;28.20;55.60;;;;;;5015726;28;20049;-78
2023/08/23 09:31:58;;;;;;;5.90;4.40;;;28.40;55.00;;;;;;5016909;28;20034;-79
2023/08/23 09:34:24;;;;;;;6.43;4.30;;;28.50;53.90;;;;;;5015427;28;20053;-77
2023/08/23 09:36:49;;;;;;;4.47;3.80;;;28.60;53.10;;;;;;5016109;28;20067;-79
2023/08/23 09:39:17;;;;;;;8.13;5.03;;;28.80;52.40;;;;;;5015776;28;20466;-80
2023/08/23 09:41:44;;;;;;;6.85;4.80;;;28.70;52.30;;;;;;5018293;28;20026;-78
2023/08/23 09:44:09;;;;;;;9.95;4.75;;;28.90;51.80;;;;;;5014398;28;20036;-79
2023/08/23 09:46:40;;;;;;;6.68;4.15;;;28.80;50.70;;;;;;5044808;28;20432;-81
2023/08/23 09:49:07;;;;;;;6.25;4.25;;;28.80;50.10;;;;;;5025387;28;20033;-83
2023/08/23 09:51:40;;;;;;;8.00;4.65;;;28.90;50.90;;;;;;5036425;28;20132;-81
2023/08/23 09:54:13;;;;;;;10.48;4.75;;;29.00;51.00;;;;;;5023765;28;20056;-80
2023/08/23 09:56:42;;;;;;;4.97;3.90;;;29.00;51.00;;;;;;5034020;28;20454;-81
2023/08/23 09:59:09;;;;;;;9.27;3.65;;;29.30;50.50;;;;;;5023322;28;20032;-77
2023/08/23 10:01:35;;;;;;;6.68;4.35;;;29.60;49.60;;;;;;5025546;28;20456;-78
2023/08/23 10:04:03;;;;;;;6.38;3.78;;;29.80;48.50;;;;;;5015112;28;20470;-79
2023/08/23 10:06:30;;;;;;;8.88;4.40;;;30.00;48.40;;;;;;5015794;28;20025;-79
2023/08/23 10:08:57;;;;;;;5.43;4.40;;;30.20;47.70;;;;;;4999239;28;20363;-78
2023/08/23 10:11:28;;;;;;;7.05;4.53;;;30.40;46.00;;;;;;5026004;28;20020;-80
2023/08/23 10:13:57;;;;;;;6.72;4.70;;;30.20;46.80;;;;;;5023653;28;20169;-81
2023/08/23 10:16:24;;;;;;;6.65;3.83;;;30.40;46.30;;;;;;5025918;28;20025;-77
2023/08/23 10:18:51;;;;;;;5.95;4.50;;;30.60;45.80;;;;;;5015513;28;20032;-76
2023/08/23 10:21:17;;;;;;;6.00;4.38;;;30.70;45.70;;;;;;5015583;28;20033;-76
2023/08/23 10:23:43;;;;;;;5.85;4.50;;;30.80;45.90;;;;;;5015430;28;20120;-75
2023/08/23 10:26:19;;;;;;;6.13;3.78;;;30.80;46.20;;;;;;5015535;28;20028;-75
2023/08/23 10:28:51;;;;;;;7.45;4.53;;;30.70;46.30;;;;;;5015058;28;20033;-75
2023/08/23 10:31:24;;;;;;;6.28;4.32;;;30.80;46.00;;;;;;5014955;28;20022;-76
2023/08/23 10:33:57;;;;;;;9.90;4.10;;;30.70;46.40;;;;;;5015457;28;20043;-78
2023/08/23 10:36:27;;;;;;;12.57;4.70;;;30.80;46.00;;;;;;5014596;28;20018;-75
2023/08/23 10:38:57;;;;;;;5.78;4.50;;;31.00;46.20;;;;;;5015188;28;20472;-77
2023/08/23 10:41:25;;;;;;;5.35;3.53;;;31.10;45.10;;;;;;5015091;28;20029;-76
2023/08/23 10:43:52;;;;;;;7.55;4.25;;;30.90;44.30;;;;;;5015299;28;20030;-76
2023/08/23 10:46:19;;;;;;;7.22;4.63;;;30.90;44.70;;;;;;4998380;28;20116;-75
2023/08/23 10:48:46;;;;;;;6.60;4.28;;;30.90;44.90;;;;;;5015356;28;20069;-75
2023/08/23 10:51:12;;;;;;;6.97;4.93;;;31.10;45.40;;;;;;5015235;28;20017;-74
2023/08/23 10:53:40;;;;;;;6.43;3.97;;;31.40;44.40;;;;;;5015164;28;20393;-76
2023/08/23 10:56:07;;;;;;;8.88;4.10;;;31.60;43.90;;;;;;5015303;28;20025;-75
2023/08/23 10:58:33;;;;;;;5.35;4.43;;;31.80;43.10;;;;;;5014983;28;20168;-76
2023/08/23 11:00:59;;;;;;;6.82;4.55;;;31.40;44.20;;;;;;5015192;28;20129;-76
2023/08/23 11:03:27;;;;;;;5.80;4.63;;;31.20;44.40;;;;;;5015186;28;20022;-75
2023/08/23 11:05:54;;;;;;;3.63;3.28;;;31.20;44.30;;;;;;5016041;28;20083;-75
2023/08/23 11:08:21;;;;;;;5.30;3.75;;;31.20;44.60;;;;;;5018689;28;20462;-75
2023/08/23 11:10:47;;;;;;;4.10;3.70;;;31.20;45.20;;;;;;5018432;28;20458;-74
2023/08/23 11:13:12;;;;;;;6.10;4.30;;;31.50;44.20;;;;;;5018395;28;20125;-76
2023/08/23 11:15:39;;;;;;;4.18;3.67;;;31.90;43.90;;;;;;5018796;28;20025;-73
2023/08/23 11:18:05;;;;;;;6.72;4.30;;;32.20;42.90;;;;;;5018939;28;20048;-74
2023/08/23 11:20:31;;;;;;;7.63;3.97;;;32.40;43.90;;;;;;5018844;28;20474;-74
2023/08/23 11:22:57;;;;;;;7.50;6.40;;;32.60;42.30;;;;;;5018854;28;20029;-73
2023/08/23 11:25:23;;;;;;;8.60;5.68;;;32.80;41.40;;;;;;5018757;28;20045;-74
2023/08/23 11:27:50;;;;;;;8.68;4.65;;;32.90;40.30;;;;;;5018710;28;20351;-74
2023/08/23 11:30:18;;;;;;;7.65;4.30;;;32.90;40.30;;;;;;5018393;28;20386;-75
2023/08/23 11:32:43;;;;;;;7.55;3.80;;;33.10;40.70;;;;;;5020973;28;20485;-75
2023/08/23 11:35:10;;;;;;;5.97;3.88;;;33.30;40.70;;;;;;5027174;28;20117;-75
2023/08/23 11:37:36;;;;;;;6.90;4.32;;;33.30;40.10;;;;;;5027127;28;20108;-75
2023/08/23 11:40:12;;;;;;;8.45;4.15;;;33.30;40.10;;;;;;5025900;28;20087;-72
2023/08/23 11:42:39;;;;;;;7.05;4.07;;;33.30;40.10;;;;;;5034282;28;20030;-75
2023/08/23 11:45:05;;;;;;;7.05;4.47;;;33.10;40.50;;;;;;5018600;28;20112;-76
2023/08/23 11:47:31;;;;;;;7.57;4.95;;;32.90;40.10;;;;;;5025635;28;20112;-75
2023/08/23 11:49:57;;;;;;;8.40;4.40;;;32.60;41.20;;;;;;5026050;28;20033;-75
2023/08/23 11:52:22;;;;;;;9.95;4.50;;;32.60;41.80;;;;;;5018187;28;20021;-75
2023/08/23 11:54:52;;;;;;;5.45;3.97;;;32.80;41.30;;;;;;5018111;28;20371;-75
2023/08/23 11:57:18;;;;;;;7.97;4.88;;;33.10;41.10;;;;;;5018316;28;20485;-76
2023/08/23 11:59:44;;;;;;;5.60;4.25;;;33.30;40.00;;;;;;5018352;28;20034;-76
2023/08/23 12:02:10;;;;;;;5.43;4.15;;;33.70;39.20;;;;;;5018033;28;20033;-76
2023/08/23 12:04:42;;;;;;;9.10;4.45;;;33.70;38.70;;;;;;5035501;28;20029;-76
2023/08/23 12:07:12;;;;;;;7.75;4.03;;;33.50;38.60;;;;;;5018033;28;20029;-75
2023/08/23 12:09:39;;;;;;;7.10;4.05;;;33.70;38.90;;;;;;5017959;28;20038;-75
2023/08/23 12:12:06;;;;;;;6.28;4.30;;;33.80;38.30;;;;;;5017824;28;20477;-76
2023/08/23 12:14:32;;;;;;;10.35;4.22;;;33.70;38.40;;;;;;5017693;28;20183;-76
2023/08/23 12:16:58;;;;;;;5.65;3.78;;;33.60;39.10;;;;;;5017418;28;20025;-75
2023/08/23 12:19:24;;;;;;;5.47;4.43;;;33.70;38.70;;;;;;5017880;28;20029;-76
2023/08/23 12:21:50;;;;;;;6.20;4.85;;;33.80;38.20;;;;;;5001381;28;20026;-75
2023/08/23 12:24:16;;;;;;;5.68;4.13;;;33.50;38.90;;;;;;5017201;28;20361;-75
2023/08/23 12:26:42;;;;;;;6.90;4.00;;;33.20;39.50;;;;;;5017279;28;20071;-75
2023/08/23 12:29:07;;;;;;;5.22;4.28;;;33.20;39.20;;;;;;5016327;28;20064;-75
2023/08/23 12:31:33;;;;;;;7.05;4.70;;;33.30;40.40;;;;;;5017053;28;20052;-76
2023/08/23 12:33:59;;;;;;;4.40;4.00;;;33.40;39.90;;;;;;5017220;28;20040;-76
2023/08/23 12:36:25;;;;;;;6.97;4.63;;;33.10;39.80;;;;;;5035097;28;20052;-76
2023/08/23 12:38:52;;;;;;;5.30;4.30;;;33.30;39.50;;;;;;5034636;28;20437;-76
2023/08/23 12:41:17;;;;;;;4.88;3.72;;;33.60;39.00;;;;;;5017144;28;20025;-76
2023/08/23 12:43:43;;;;;;;5.72;4.20;;;34.00;39.40;;;;;;5016804;28;20403;-75